Time;durP1;ratioP1;P1;durP2;ratioP2;P2;SDS_P1;SDS_P2;PMS_P1;PMS_P2;Temp;Humidity;BMP_temperature;BMP_pressure;BME280_temperature;BME280_humidity;BME280_pressure;Samples;Min_cycle;Max_cycle;Signal;HPM_P1;HPM_P2
2023/05/21 00:06:50;;;;;;;4.32;1.98;;;;;;;;;;20916295;28;20095;-65
2023/05/21 00:16:52;;;;;;;4.63;2.03;;;;;;;;;;20915115;28;20049;-65
2023/05/21 00:26:53;;;;;;;3.22;2.00;;;;;;;;;;20914204;28;20064;-65
2023/05/21 00:36:54;;;;;;;5.10;1.60;;;;;;;;;;20914617;28;20482;-65
2023/05/21 00:46:55;;;;;;;4.57;1.88;;;;;;;;;;20914262;28;20104;-65
2023/05/21 00:56:56;;;;;;;5.35;2.00;;;;;;;;;;20914661;28;20084;-64
2023/05/21 01:06:58;;;;;;;6.38;2.10;;;;;;;;;;20913026;28;20048;-65
2023/05/21 01:17:00;;;;;;;5.80;2.22;;;;;;;;;;20912196;28;20041;-66
2023/05/21 01:27:05;;;;;;;5.82;2.10;;;;;;;;;;20911882;28;20067;-64
2023/05/21 01:37:12;;;;;;;3.55;1.80;;;;;;;;;;20928311;28;20041;-65
2023/05/21 01:47:14;;;;;;;7.63;2.28;;;;;;;;;;20927464;28;20045;-65
2023/05/21 01:57:15;;;;;;;5.10;1.77;;;;;;;;;;20926691;28;20045;-65
2023/05/21 02:07:17;;;;;;;5.93;2.38;;;;;;;;;;20925766;28;20056;-64
2023/05/21 02:17:18;;;;;;;4.28;1.98;;;;;;;;;;20924987;28;20041;-65
2023/05/21 02:27:19;;;;;;;6.97;2.47;;;;;;;;;;20923954;28;20106;-64
2023/05/21 02:37:21;;;;;;;6.38;2.20;;;;;;;;;;20923562;28;20045;-64
2023/05/21 02:47:22;;;;;;;3.83;2.05;;;;;;;;;;20921759;28;20104;-65
2023/05/21 02:57:23;;;;;;;3.58;2.10;;;;;;;;;;20920808;28;20057;-65
2023/05/21 03:07:24;;;;;;;4.20;1.95;;;;;;;;;;20919916;28;20107;-64
2023/05/21 03:17:25;;;;;;;7.47;2.25;;;;;;;;;;20919097;28;20045;-64
2023/05/21 03:27:27;;;;;;;6.57;2.47;;;;;;;;;;20919888;28;20060;-65
2023/05/21 03:37:28;;;;;;;7.22;2.40;;;;;;;;;;20918508;28;20071;-65
2023/05/21 03:47:29;;;;;;;7.25;2.10;;;;;;;;;;20917924;28;20540;-64
2023/05/21 03:57:30;;;;;;;4.05;1.98;;;;;;;;;;20916880;28;20110;-64
2023/05/21 04:07:31;;;;;;;5.30;1.90;;;;;;;;;;20916385;28;20398;-67
2023/05/21 04:17:34;;;;;;;7.10;2.50;;;;;;;;;;20915963;28;20470;-65
2023/05/21 04:27:35;;;;;;;5.15;2.30;;;;;;;;;;20914237;28;20115;-63
2023/05/21 04:37:40;;;;;;;4.20;1.88;;;;;;;;;;20914703;28;20036;-65
2023/05/21 04:47:42;;;;;;;3.15;1.90;;;;;;;;;;20914091;28;20045;-65
2023/05/21 04:57:43;;;;;;;5.18;1.85;;;;;;;;;;20913873;28;20045;-64
2023/05/21 05:07:44;;;;;;;6.97;2.05;;;;;;;;;;20924682;28;20047;-66
2023/05/21 05:17:49;;;;;;;4.95;2.20;;;;;;;;;;20929996;28;20037;-64
2023/05/21 05:27:50;;;;;;;5.03;1.67;;;;;;;;;;20927751;28;20061;-65
2023/05/21 05:37:51;;;;;;;5.05;2.10;;;;;;;;;;20928394;28;20045;-65
2023/05/21 05:47:52;;;;;;;4.10;1.83;;;;;;;;;;20927107;28;20513;-65
2023/05/21 05:57:53;;;;;;;5.18;2.10;;;;;;;;;;20925249;28;20111;-65
2023/05/21 06:07:55;;;;;;;4.20;2.15;;;;;;;;;;20925678;28;20516;-64
2023/05/21 06:17:56;;;;;;;6.43;2.65;;;;;;;;;;20922903;28;20052;-65
2023/05/21 06:27:57;;;;;;;4.47;2.35;;;;;;;;;;20923369;28;20053;-67
2023/05/21 06:37:58;;;;;;;3.47;1.92;;;;;;;;;;20923778;28;20044;-66
2023/05/21 06:47:59;;;;;;;3.63;1.88;;;;;;;;;;20922926;28;20044;-66
2023/05/21 06:58:01;;;;;;;8.23;2.42;;;;;;;;;;20922347;28;20533;-67
2023/05/21 07:08:02;;;;;;;5.53;2.47;;;;;;;;;;20920212;28;20096;-66
2023/05/21 07:18:03;;;;;;;7.07;2.38;;;;;;;;;;20920506;28;20052;-67
2023/05/21 07:28:04;;;;;;;4.03;2.13;;;;;;;;;;20918132;28;20063;-67
2023/05/21 07:38:05;;;;;;;4.60;2.00;;;;;;;;;;20918884;28;20049;-68
2023/05/21 07:48:06;;;;;;;7.80;2.45;;;;;;;;;;20918117;28;20127;-66
2023/05/21 07:58:07;;;;;;;3.88;2.63;;;;;;;;;;20915688;28;20087;-66
2023/05/21 08:08:09;;;;;;;7.30;2.50;;;;;;;;;;20914994;28;20124;-66
2023/05/21 08:18:10;;;;;;;5.10;2.50;;;;;;;;;;20915386;28;20052;-68
2023/05/21 08:28:11;;;;;;;3.72;2.20;;;;;;;;;;20913390;28;20057;-68
2023/05/21 08:38:12;;;;;;;5.45;2.80;;;;;;;;;;20912302;28;20041;-67
2023/05/21 08:48:15;;;;;;;5.55;2.58;;;;;;;;;;20912217;28;20486;-67
2023/05/21 08:58:18;;;;;;;3.90;2.47;;;;;;;;;;20910776;28;20049;-68
2023/05/21 09:08:21;;;;;;;6.53;2.08;;;;;;;;;;20911694;28;20047;-68
2023/05/21 09:18:22;;;;;;;5.30;2.33;;;;;;;;;;20913027;28;20132;-67
2023/05/21 09:28:24;;;;;;;5.70;2.55;;;;;;;;;;20911038;28;20057;-68
2023/05/21 09:38:26;;;;;;;4.20;2.38;;;;;;;;;;20910623;28;20120;-67
2023/05/21 09:48:34;;;;;;;6.57;2.53;;;;;;;;;;20913239;28;20044;-65
2023/05/21 09:58:35;;;;;;;3.17;1.95;;;;;;;;;;20926580;28;20049;-67
2023/05/21 10:08:41;;;;;;;4.55;2.10;;;;;;;;;;20925646;28;20049;-66
2023/05/21 10:18:45;;;;;;;5.03;2.25;;;;;;;;;;20924638;28;20482;-68
2023/05/21 10:28:46;;;;;;;5.57;2.30;;;;;;;;;;20922358;28;20057;-66
2023/05/21 10:38:48;;;;;;;7.38;2.65;;;;;;;;;;20922438;28;20393;-67
2023/05/21 10:48:57;;;;;;;6.05;2.20;;;;;;;;;;20920487;28;20045;-67
2023/05/21 10:58:59;;;;;;;4.63;2.30;;;;;;;;;;20920645;28;20052;-67
2023/05/21 11:09:18;;;;;;;4.28;2.00;;;;;;;;;;20920571;28;20044;-67
2023/05/21 11:19:19;;;;;;;3.95;2.00;;;;;;;;;;20918496;28;20050;-67
2023/05/21 11:29:31;;;;;;;4.50;2.65;;;;;;;;;;20917713;28;20053;-66
2023/05/21 11:39:39;;;;;;;3.28;2.10;;;;;;;;;;20918585;28;20499;-67
2023/05/21 11:49:40;;;;;;;4.50;2.43;;;;;;;;;;20915941;28;20041;-66
2023/05/21 11:59:41;;;;;;;4.68;2.33;;;;;;;;;;20916108;28;20506;-68
2023/05/21 12:09:43;;;;;;;5.40;2.17;;;;;;;;;;20915452;28;20052;-69
2023/05/21 12:19:45;;;;;;;5.00;2.42;;;;;;;;;;20915299;28;20055;-69
2023/05/21 12:29:48;;;;;;;7.32;2.78;;;;;;;;;;20913203;28;20072;-68
2023/05/21 12:39:50;;;;;;;6.85;2.53;;;;;;;;;;20914149;28;20049;-68
2023/05/21 12:49:54;;;;;;;10.25;2.97;;;;;;;;;;20913603;28;20497;-67
2023/05/21 12:59:59;;;;;;;13.27;3.78;;;;;;;;;;20912545;28;20055;-68
2023/05/21 13:10:01;;;;;;;12.75;4.07;;;;;;;;;;20912714;28;20119;-69
2023/05/21 13:20:14;;;;;;;6.60;3.28;;;;;;;;;;20912002;28;20041;-68
2023/05/21 13:30:15;;;;;;;9.35;6.15;;;;;;;;;;20924001;28;20060;-67
2023/05/21 13:40:16;;;;;;;8.50;5.00;;;;;;;;;;20924437;28;20041;-67
2023/05/21 13:50:17;;;;;;;8.90;3.50;;;;;;;;;;20925866;28;20435;-68
2023/05/21 14:00:19;;;;;;;5.90;3.47;;;;;;;;;;20926194;28;20049;-67
2023/05/21 14:10:20;;;;;;;4.68;2.78;;;;;;;;;;20925524;28;20051;-69
2023/05/21 14:20:21;;;;;;;5.78;2.60;;;;;;;;;;20924870;28;20127;-67
2023/05/21 14:30:22;;;;;;;4.80;2.20;;;;;;;;;;20921955;28;20081;-68
2023/05/21 14:40:23;;;;;;;3.45;1.85;;;;;;;;;;20920003;28;20127;-69
2023/05/21 14:50:24;;;;;;;3.60;1.98;;;;;;;;;;20921407;28;20044;-68
2023/05/21 15:00:26;;;;;;;4.05;1.90;;;;;;;;;;20921529;28;20056;-68
2023/05/21 15:10:27;;;;;;;5.70;2.13;;;;;;;;;;20920874;28;20052;-68
2023/05/21 15:20:29;;;;;;;4.20;1.90;;;;;;;;;;20919966;28;20079;-68
2023/05/21 15:30:30;;;;;;;3.80;2.20;;;;;;;;;;20916906;28;20399;-69
2023/05/21 15:40:31;;;;;;;4.80;1.88;;;;;;;;;;20917763;28;20479;-67
2023/05/21 15:50:34;;;;;;;3.38;1.90;;;;;;;;;;20916617;28;20072;-67
2023/05/21 16:00:35;;;;;;;3.03;1.90;;;;;;;;;;20916617;28;20057;-68
2023/05/21 16:10:38;;;;;;;3.67;2.22;;;;;;;;;;20916253;28;20041;-68
2023/05/21 16:20:39;;;;;;;3.45;1.67;;;;;;;;;;20916186;28;20551;-66
2023/05/21 16:30:40;;;;;;;4.68;1.85;;;;;;;;;;20914390;28;20529;-66
2023/05/21 16:40:41;;;;;;;2.45;1.55;;;;;;;;;;20914891;28;20041;-67
2023/05/21 16:50:43;;;;;;;3.13;2.00;;;;;;;;;;20914407;28;20037;-67
2023/05/21 17:00:44;;;;;;;2.30;1.60;;;;;;;;;;20912198;28;20053;-67
2023/05/21 17:10:45;;;;;;;3.53;2.05;;;;;;;;;;20910309;28;20152;-66
2023/05/21 17:20:46;;;;;;;4.32;2.00;;;;;;;;;;20911478;28;20175;-66
2023/05/21 17:30:47;;;;;;;4.55;1.95;;;;;;;;;;20910889;28;20514;-67
2023/05/21 17:40:49;;;;;;;3.55;1.95;;;;;;;;;;20911727;28;20056;-67
2023/05/21 17:50:50;;;;;;;5.22;2.20;;;;;;;;;;20911725;28;20457;-67
2023/05/21 18:00:51;;;;;;;4.72;2.38;;;;;;;;;;20911092;28;20053;-67
2023/05/21 18:10:52;;;;;;;6.18;2.45;;;;;;;;;;20914549;28;20045;-67
2023/05/21 18:20:53;;;;;;;3.80;1.75;;;;;;;;;;20924688;28;20044;-66
2023/05/21 18:30:55;;;;;;;4.15;2.28;;;;;;;;;;20922419;28;20136;-67
2023/05/21 18:40:56;;;;;;;4.18;2.28;;;;;;;;;;20921795;28;20040;-67
2023/05/21 18:50:58;;;;;;;4.43;1.90;;;;;;;;;;20922289;28;20041;-67
2023/05/21 19:00:59;;;;;;;2.78;1.65;;;;;;;;;;20921649;28;20076;-67
2023/05/21 19:11:00;;;;;;;4.18;1.63;;;;;;;;;;20919382;28;20053;-67
2023/05/21 19:21:01;;;;;;;4.25;2.05;;;;;;;;;;20919366;28;20492;-68
2023/05/21 19:31:02;;;;;;;4.82;2.00;;;;;;;;;;20918127;28;20060;-67
2023/05/21 19:41:03;;;;;;;3.28;2.00;;;;;;;;;;20918190;28;20048;-68
2023/05/21 19:51:05;;;;;;;4.10;2.22;;;;;;;;;;20917062;28;20048;-67
2023/05/21 20:01:06;;;;;;;5.00;2.15;;;;;;;;;;20916406;28;20049;-67
2023/05/21 20:11:07;;;;;;;4.15;2.70;;;;;;;;;;20914231;28;20072;-67
2023/05/21 20:21:09;;;;;;;5.47;2.40;;;;;;;;;;20914841;28;20118;-67
2023/05/21 20:31:10;;;;;;;4.75;1.90;;;;;;;;;;20913518;28;20056;-68
2023/05/21 20:41:11;;;;;;;4.22;2.58;;;;;;;;;;20913840;28;20045;-66
2023/05/21 20:51:12;;;;;;;7.57;2.95;;;;;;;;;;20914408;28;20073;-67
2023/05/21 21:01:17;;;;;;;7.20;3.70;;;;;;;;;;20912473;28;20056;-67
2023/05/21 21:11:18;;;;;;;7.15;2.90;;;;;;;;;;20913457;28;20048;-67
2023/05/21 21:21:19;;;;;;;6.28;2.95;;;;;;;;;;20912906;28;20045;-67
2023/05/21 21:31:20;;;;;;;7.00;2.95;;;;;;;;;;20911421;28;20068;-66
2023/05/21 21:41:22;;;;;;;5.10;2.55;;;;;;;;;;20912064;28;20081;-67
2023/05/21 21:51:23;;;;;;;7.22;2.58;;;;;;;;;;20923518;28;20045;-66
2023/05/21 22:01:24;;;;;;;2.60;1.52;;;;;;;;;;20926519;28;20224;-67
2023/05/21 22:11:27;;;;;;;5.28;2.40;;;;;;;;;;20925726;28;20068;-67
2023/05/21 22:21:31;;;;;;;4.55;2.30;;;;;;;;;;20923923;28;20112;-67
2023/05/21 22:31:32;;;;;;;4.85;1.90;;;;;;;;;;20922553;28;20556;-67
2023/05/21 22:41:33;;;;;;;3.65;1.70;;;;;;;;;;20923523;28;20041;-67
2023/05/21 22:51:34;;;;;;;3.05;1.52;;;;;;;;;;20923341;28;20517;-67
2023/05/21 23:01:36;;;;;;;2.53;1.40;;;;;;;;;;20921110;28;20060;-67
2023/05/21 23:11:38;;;;;;;2.85;1.63;;;;;;;;;;20920419;28;20143;-66
2023/05/21 23:21:39;;;;;;;4.25;1.80;;;;;;;;;;20920581;28;20045;-66
2023/05/21 23:31:40;;;;;;;2.55;1.58;;;;;;;;;;20917292;28;20052;-66
2023/05/21 23:41:41;;;;;;;2.70;1.33;;;;;;;;;;20917703;28;20071;-66
2023/05/21 23:51:43;;;;;;;2.88;1.52;;;;;;;;;;20917184;28;20080;-67
